sensor_id;sensor_type;location;lat;lon;timestamp;temperature;humidity
59067;DHT22;44854;50.838;4.438;2022-09-16T05:33:08;14.60;99.90
59067;DHT22;44854;50.838;4.438;2022-09-16T05:35:34;14.50;99.90
59067;DHT22;44854;50.838;4.438;2022-09-16T05:37:59;14.50;99.90
59067;DHT22;44854;50.838;4.438;2022-09-16T05:40:25;14.30;99.90
59067;DHT22;44854;50.838;4.438;2022-09-16T05:42:51;14.30;99.90
59067;DHT22;44854;50.838;4.438;2022-09-16T05:45:17;14.30;99.90
59067;DHT22;44854;50.838;4.438;2022-09-16T05:47:46;14.40;99.90
59067;DHT22;44854;50.838;4.438;2022-09-16T05:50:12;14.40;99.90
59067;DHT22;44854;50.838;4.438;2022-09-16T05:52:37;14.40;99.90
59067;DHT22;44854;50.838;4.438;2022-09-16T05:55:03;14.50;99.90
59067;DHT22;44854;50.838;4.438;2022-09-16T05:57:29;14.60;99.90
59067;DHT22;44854;50.838;4.438;2022-09-16T05:59:54;14.50;99.90
59067;DHT22;44854;50.838;4.438;2022-09-16T06:02:20;14.40;99.90
59067;DHT22;44854;50.838;4.438;2022-09-16T06:04:46;14.60;99.90
59067;DHT22;44854;50.838;4.438;2022-09-16T06:07:11;14.40;99.90
59067;DHT22;44854;50.838;4.438;2022-09-16T06:09:37;14.40;99.90
59067;DHT22;44854;50.838;4.438;2022-09-16T06:12:04;14.30;99.90
59067;DHT22;44854;50.838;4.438;2022-09-16T06:14:30;14.30;99.90
59067;DHT22;44854;50.838;4.438;2022-09-16T06:16:55;14.40;99.90
59067;DHT22;44854;50.838;4.438;2022-09-16T06:19:21;14.40;99.90
59067;DHT22;44854;50.838;4.438;2022-09-16T06:21:47;14.40;99.90
59067;DHT22;44854;50.838;4.438;2022-09-16T06:24:14;14.30;99.90
59067;DHT22;44854;50.838;4.438;2022-09-16T06:26:40;14.30;99.90
59067;DHT22;44854;50.838;4.438;2022-09-16T06:29:06;14.30;99.90
59067;DHT22;44854;50.838;4.438;2022-09-16T06:31:33;14.20;99.90
59067;DHT22;44854;50.838;4.438;2022-09-16T06:33:58;14.20;99.90
59067;DHT22;44854;50.838;4.438;2022-09-16T06:36:28;14.20;99.90
59067;DHT22;44854;50.838;4.438;2022-09-16T06:38:54;14.20;99.90
59067;DHT22;44854;50.838;4.438;2022-09-16T06:41:20;14.30;99.90
59067;DHT22;44854;50.838;4.438;2022-09-16T06:44:03;14.40;99.90
59067;DHT22;44854;50.838;4.438;2022-09-16T06:46:28;14.40;99.90
59067;DHT22;44854;50.838;4.438;2022-09-16T06:48:56;14.50;99.90
59067;DHT22;44854;50.838;4.438;2022-09-16T06:51:23;14.40;99.90
59067;DHT22;44854;50.838;4.438;2022-09-16T06:53:49;14.40;99.90
59067;DHT22;44854;50.838;4.438;2022-09-16T06:56:16;14.50;99.90
59067;DHT22;44854;50.838;4.438;2022-09-16T06:58:43;14.40;99.90
59067;DHT22;44854;50.838;4.438;2022-09-16T07:01:12;14.50;99.90
59067;DHT22;44854;50.838;4.438;2022-09-16T07:03:41;14.60;99.90
59067;DHT22;44854;50.838;4.438;2022-09-16T07:06:08;14.40;99.90
59067;DHT22;44854;50.838;4.438;2022-09-16T07:08:34;14.20;99.90
59067;DHT22;44854;50.838;4.438;2022-09-16T07:13:28;14.30;99.90
59067;DHT22;44854;50.838;4.438;2022-09-16T07:15:54;14.30;99.90
59067;DHT22;44854;50.838;4.438;2022-09-16T07:18:22;14.30;99.90
59067;DHT22;44854;50.838;4.438;2022-09-16T07:20:49;14.30;99.90
59067;DHT22;44854;50.838;4.438;2022-09-16T07:23:15;14.40;99.90
59067;DHT22;44854;50.838;4.438;2022-09-16T07:25:40;14.60;99.90
59067;DHT22;44854;50.838;4.438;2022-09-16T07:28:06;14.50;99.90
59067;DHT22;44854;50.838;4.438;2022-09-16T07:30:32;14.60;99.90
59067;DHT22;44854;50.838;4.438;2022-09-16T07:32:58;14.50;99.90
59067;DHT22;44854;50.838;4.438;2022-09-16T07:35:24;14.50;99.90
59067;DHT22;44854;50.838;4.438;2022-09-16T07:37:50;14.60;99.90
59067;DHT22;44854;50.838;4.438;2022-09-16T07:40:15;14.60;99.90
59067;DHT22;44854;50.838;4.438;2022-09-16T07:42:41;14.50;99.90
59067;DHT22;44854;50.838;4.438;2022-09-16T07:45:07;14.30;99.90
59067;DHT22;44854;50.838;4.438;2022-09-16T07:47:33;14.30;99.90
59067;DHT22;44854;50.838;4.438;2022-09-16T07:50:00;14.40;99.90
59067;DHT22;44854;50.838;4.438;2022-09-16T07:52:30;14.50;99.90
59067;DHT22;44854;50.838;4.438;2022-09-16T07:54:55;14.50;99.90
59067;DHT22;44854;50.838;4.438;2022-09-16T07:57:21;14.40;99.90
59067;DHT22;44854;50.838;4.438;2022-09-16T07:59:47;14.60;99.90
59067;DHT22;44854;50.838;4.438;2022-09-16T08:02:13;14.70;99.90
59067;DHT22;44854;50.838;4.438;2022-09-16T08:04:39;14.60;99.90
59067;DHT22;44854;50.838;4.438;2022-09-16T08:07:04;14.50;99.90
59067;DHT22;44854;50.838;4.438;2022-09-16T08:09:30;14.60;99.90
59067;DHT22;44854;50.838;4.438;2022-09-16T08:11:56;14.80;99.90
59067;DHT22;44854;50.838;4.438;2022-09-16T08:14:22;14.90;99.90
59067;DHT22;44854;50.838;4.438;2022-09-16T08:16:47;14.90;99.90
59067;DHT22;44854;50.838;4.438;2022-09-16T08:19:15;14.90;99.90
59067;DHT22;44854;50.838;4.438;2022-09-16T08:21:41;15.00;99.90
59067;DHT22;44854;50.838;4.438;2022-09-16T08:24:08;15.20;99.90
59067;DHT22;44854;50.838;4.438;2022-09-16T08:26:33;15.30;99.90
59067;DHT22;44854;50.838;4.438;2022-09-16T08:28:59;15.10;99.90
59067;DHT22;44854;50.838;4.438;2022-09-16T08:31:24;15.20;99.90
59067;DHT22;44854;50.838;4.438;2022-09-16T08:33:50;15.20;99.90
59067;DHT22;44854;50.838;4.438;2022-09-16T08:36:18;15.00;99.90
59067;DHT22;44854;50.838;4.438;2022-09-16T08:38:44;15.00;99.90
59067;DHT22;44854;50.838;4.438;2022-09-16T08:41:18;15.00;99.90
59067;DHT22;44854;50.838;4.438;2022-09-16T08:46:16;15.10;99.90
59067;DHT22;44854;50.838;4.438;2022-09-16T08:48:52;14.90;99.90
59067;DHT22;44854;50.838;4.438;2022-09-16T08:51:19;14.70;99.90
59067;DHT22;44854;50.838;4.438;2022-09-16T08:56:14;14.10;99.90
59067;DHT22;44854;50.838;4.438;2022-09-16T08:58:45;13.90;99.90
59067;DHT22;44854;50.838;4.438;2022-09-16T09:03:45;14.20;99.90
59067;DHT22;44854;50.838;4.438;2022-09-16T09:06:17;14.10;99.90
59067;DHT22;44854;50.838;4.438;2022-09-16T09:24:14;14.40;99.90
59067;DHT22;44854;50.838;4.438;2022-09-16T09:26:47;14.30;99.90
59067;DHT22;44854;50.838;4.438;2022-09-16T09:32:03;14.20;99.90
59067;DHT22;44854;50.838;4.438;2022-09-16T09:39:57;14.30;99.90
59067;DHT22;44854;50.838;4.438;2022-09-16T09:42:32;14.40;99.90
59067;DHT22;44854;50.838;4.438;2022-09-16T09:45:17;14.50;99.90
59067;DHT22;44854;50.838;4.438;2022-09-16T09:47:45;14.60;99.90
59067;DHT22;44854;50.838;4.438;2022-09-16T09:50:34;14.60;99.90
59067;DHT22;44854;50.838;4.438;2022-09-16T09:55:39;14.80;99.90
59067;DHT22;44854;50.838;4.438;2022-09-16T10:00:49;14.70;99.90
59067;DHT22;44854;50.838;4.438;2022-09-16T10:03:17;14.80;99.90
59067;DHT22;44854;50.838;4.438;2022-09-16T10:05:43;15.00;99.90
59067;DHT22;44854;50.838;4.438;2022-09-16T10:08:23;15.20;99.90
59067;DHT22;44854;50.838;4.438;2022-09-16T10:10:51;15.40;99.90
59067;DHT22;44854;50.838;4.438;2022-09-16T10:13:18;15.30;99.90
59067;DHT22;44854;50.838;4.438;2022-09-16T10:15:44;15.20;99.90
59067;DHT22;44854;50.838;4.438;2022-09-16T10:18:11;15.40;99.90
59067;DHT22;44854;50.838;4.438;2022-09-16T10:20:38;15.60;99.90
59067;DHT22;44854;50.838;4.438;2022-09-16T10:23:08;15.60;99.90
59067;DHT22;44854;50.838;4.438;2022-09-16T10:25:34;15.60;99.90
59067;DHT22;44854;50.838;4.438;2022-09-16T10:28:02;15.90;99.90
59067;DHT22;44854;50.838;4.438;2022-09-16T10:30:29;16.10;99.90
59067;DHT22;44854;50.838;4.438;2022-09-16T10:35:29;15.90;99.90
59067;DHT22;44854;50.838;4.438;2022-09-16T10:37:56;15.80;99.90
59067;DHT22;44854;50.838;4.438;2022-09-16T10:40:23;15.70;99.90
59067;DHT22;44854;50.838;4.438;2022-09-16T10:42:50;15.80;99.90
59067;DHT22;44854;50.838;4.438;2022-09-16T10:47:45;15.10;99.90
59067;DHT22;44854;50.838;4.438;2022-09-16T10:50:16;14.60;99.90
59067;DHT22;44854;50.838;4.438;2022-09-16T10:52:43;14.60;99.90
59067;DHT22;44854;50.838;4.438;2022-09-16T10:55:30;14.60;99.90
59067;DHT22;44854;50.838;4.438;2022-09-16T10:58:15;14.70;99.90
59067;DHT22;44854;50.838;4.438;2022-09-16T11:00:47;14.80;99.90
59067;DHT22;44854;50.838;4.438;2022-09-16T11:06:21;15.00;99.90
59067;DHT22;44854;50.838;4.438;2022-09-16T11:19:05;15.30;99.90
59067;DHT22;44854;50.838;4.438;2022-09-16T11:29:36;15.40;99.90
59067;DHT22;44854;50.838;4.438;2022-09-16T11:42:56;14.90;99.90
59067;DHT22;44854;50.838;4.438;2022-09-16T11:58:44;14.90;99.90
59067;DHT22;44854;50.838;4.438;2022-09-16T12:01:34;14.80;99.90
59067;DHT22;44854;50.838;4.438;2022-09-16T12:06:29;14.50;99.90
59067;DHT22;44854;50.838;4.438;2022-09-16T12:09:02;14.40;99.90
59067;DHT22;44854;50.838;4.438;2022-09-16T12:11:34;14.00;99.90
59067;DHT22;44854;50.838;4.438;2022-09-16T12:16:53;14.00;99.90
59067;DHT22;44854;50.838;4.438;2022-09-16T12:19:27;14.20;99.90
59067;DHT22;44854;50.838;4.438;2022-09-16T12:21:58;14.10;99.90
59067;DHT22;44854;50.838;4.438;2022-09-16T12:26:56;14.10;99.90
59067;DHT22;44854;50.838;4.438;2022-09-16T12:31:52;13.70;99.90
59067;DHT22;44854;50.838;4.438;2022-09-16T12:34:23;13.80;99.90
59067;DHT22;44854;50.838;4.438;2022-09-16T12:39:38;14.10;99.90
59067;DHT22;44854;50.838;4.438;2022-09-16T12:42:18;14.20;99.90
59067;DHT22;44854;50.838;4.438;2022-09-16T12:52:55;14.80;99.90
59067;DHT22;44854;50.838;4.438;2022-09-16T13:00:56;14.50;99.90
59067;DHT22;44854;50.838;4.438;2022-09-16T13:03:23;14.70;99.90
59067;DHT22;44854;50.838;4.438;2022-09-16T13:05:52;14.90;99.90
59067;DHT22;44854;50.838;4.438;2022-09-16T13:08:22;14.90;99.90
59067;DHT22;44854;50.838;4.438;2022-09-16T13:10:56;14.70;99.90
59067;DHT22;44854;50.838;4.438;2022-09-16T13:13:33;15.00;99.90
59067;DHT22;44854;50.838;4.438;2022-09-16T13:16:00;15.10;99.90
59067;DHT22;44854;50.838;4.438;2022-09-16T13:18:37;15.30;99.90
59067;DHT22;44854;50.838;4.438;2022-09-16T13:21:06;15.40;99.90
59067;DHT22;44854;50.838;4.438;2022-09-16T13:23:40;15.50;99.90
59067;DHT22;44854;50.838;4.438;2022-09-16T13:26:08;15.50;99.90
59067;DHT22;44854;50.838;4.438;2022-09-16T13:28:38;15.40;99.90
59067;DHT22;44854;50.838;4.438;2022-09-16T13:31:27;15.50;99.90
59067;DHT22;44854;50.838;4.438;2022-09-16T13:38:53;15.50;99.90
59067;DHT22;44854;50.838;4.438;2022-09-16T13:43:53;15.50;99.90
59067;DHT22;44854;50.838;4.438;2022-09-16T13:46:29;14.90;99.90
59067;DHT22;44854;50.838;4.438;2022-09-16T13:51:37;13.90;99.90
59067;DHT22;44854;50.838;4.438;2022-09-16T13:54:13;13.50;99.90
59067;DHT22;44854;50.838;4.438;2022-09-16T14:07:08;14.60;99.90
59067;DHT22;44854;50.838;4.438;2022-09-16T14:09:44;14.70;99.90
59067;DHT22;44854;50.838;4.438;2022-09-16T14:14:39;14.90;99.90
59067;DHT22;44854;50.838;4.438;2022-09-16T14:17:13;15.00;99.90
59067;DHT22;44854;50.838;4.438;2022-09-16T14:19:39;15.00;99.90
59067;DHT22;44854;50.838;4.438;2022-09-16T14:24:35;15.10;99.90
59067;DHT22;44854;50.838;4.438;2022-09-16T14:27:01;15.20;99.90
59067;DHT22;44854;50.838;4.438;2022-09-16T14:29:27;15.10;99.90
59067;DHT22;44854;50.838;4.438;2022-09-16T14:31:53;15.10;99.90
59067;DHT22;44854;50.838;4.438;2022-09-16T14:36:47;15.00;99.90
59067;DHT22;44854;50.838;4.438;2022-09-16T14:39:14;14.90;99.90
59067;DHT22;44854;50.838;4.438;2022-09-16T14:44:09;15.00;99.90
59067;DHT22;44854;50.838;4.438;2022-09-16T14:46:41;14.90;99.90
59067;DHT22;44854;50.838;4.438;2022-09-16T14:49:08;15.00;99.90
59067;DHT22;44854;50.838;4.438;2022-09-16T14:51:34;15.10;99.90
59067;DHT22;44854;50.838;4.438;2022-09-16T14:54:01;15.10;99.90
59067;DHT22;44854;50.838;4.438;2022-09-16T14:56:27;15.00;99.90
59067;DHT22;44854;50.838;4.438;2022-09-16T14:58:53;14.80;99.90
59067;DHT22;44854;50.838;4.438;2022-09-16T15:01:20;14.70;99.90
59067;DHT22;44854;50.838;4.438;2022-09-16T15:03:50;14.60;99.90
59067;DHT22;44854;50.838;4.438;2022-09-16T15:06:21;14.60;99.90
59067;DHT22;44854;50.838;4.438;2022-09-16T15:11:21;14.90;99.90
59067;DHT22;44854;50.838;4.438;2022-09-16T15:13:47;15.00;99.90
59067;DHT22;44854;50.838;4.438;2022-09-16T15:16:15;15.00;99.90
59067;DHT22;44854;50.838;4.438;2022-09-16T15:18:41;15.00;99.90
59067;DHT22;44854;50.838;4.438;2022-09-16T15:21:21;14.90;99.90
59067;DHT22;44854;50.838;4.438;2022-09-16T15:23:51;15.00;99.90
59067;DHT22;44854;50.838;4.438;2022-09-16T15:26:18;15.00;99.90
59067;DHT22;44854;50.838;4.438;2022-09-16T15:28:49;15.00;99.90
59067;DHT22;44854;50.838;4.438;2022-09-16T15:31:24;15.10;99.90
59067;DHT22;44854;50.838;4.438;2022-09-16T15:33:51;15.10;99.90
59067;DHT22;44854;50.838;4.438;2022-09-16T15:36:33;14.90;99.90
59067;DHT22;44854;50.838;4.438;2022-09-16T15:38:58;15.00;99.90
59067;DHT22;44854;50.838;4.438;2022-09-16T15:41:24;15.30;99.90
59067;DHT22;44854;50.838;4.438;2022-09-16T15:43:50;15.30;99.90
59067;DHT22;44854;50.838;4.438;2022-09-16T15:46:19;15.30;99.90
59067;DHT22;44854;50.838;4.438;2022-09-16T15:49:09;15.30;99.90
59067;DHT22;44854;50.838;4.438;2022-09-16T15:51:33;15.40;99.90
59067;DHT22;44854;50.838;4.438;2022-09-16T15:54:14;15.40;99.90
59067;DHT22;44854;50.838;4.438;2022-09-16T15:57:03;15.40;99.90
59067;DHT22;44854;50.838;4.438;2022-09-16T16:01:53;15.20;99.90
59067;DHT22;44854;50.838;4.438;2022-09-16T16:04:28;15.20;99.90
59067;DHT22;44854;50.838;4.438;2022-09-16T16:06:56;15.10;99.90
59067;DHT22;44854;50.838;4.438;2022-09-16T16:11:51;15.10;99.90
59067;DHT22;44854;50.838;4.438;2022-09-16T16:14:17;15.00;99.90
59067;DHT22;44854;50.838;4.438;2022-09-16T16:16:42;14.80;99.90
59067;DHT22;44854;50.838;4.438;2022-09-16T16:19:08;14.70;99.90
59067;DHT22;44854;50.838;4.438;2022-09-16T16:21:37;14.80;99.90
59067;DHT22;44854;50.838;4.438;2022-09-16T16:24:03;14.70;99.90
59067;DHT22;44854;50.838;4.438;2022-09-16T16:26:30;14.60;99.90
59067;DHT22;44854;50.838;4.438;2022-09-16T16:28:56;14.60;99.90
59067;DHT22;44854;50.838;4.438;2022-09-16T16:31:22;14.60;99.90
59067;DHT22;44854;50.838;4.438;2022-09-16T16:33:47;14.40;99.90
59067;DHT22;44854;50.838;4.438;2022-09-16T16:36:13;14.30;99.90
59067;DHT22;44854;50.838;4.438;2022-09-16T16:38:39;14.20;99.90
59067;DHT22;44854;50.838;4.438;2022-09-16T16:41:05;14.10;99.90
59067;DHT22;44854;50.838;4.438;2022-09-16T16:43:32;14.00;99.90
59067;DHT22;44854;50.838;4.438;2022-09-16T16:45:57;14.00;99.90
59067;DHT22;44854;50.838;4.438;2022-09-16T16:48:23;13.80;99.90
59067;DHT22;44854;50.838;4.438;2022-09-16T16:50:55;13.70;99.90
59067;DHT22;44854;50.838;4.438;2022-09-16T16:53:21;13.40;99.90
59067;DHT22;44854;50.838;4.438;2022-09-16T16:55:47;13.10;99.90
59067;DHT22;44854;50.838;4.438;2022-09-16T16:58:12;12.90;99.90
59067;DHT22;44854;50.838;4.438;2022-09-16T17:00:38;12.90;99.90
59067;DHT22;44854;50.838;4.438;2022-09-16T17:03:04;12.70;99.90
59067;DHT22;44854;50.838;4.438;2022-09-16T17:05:29;12.80;99.90
59067;DHT22;44854;50.838;4.438;2022-09-16T17:07:55;12.70;99.90
59067;DHT22;44854;50.838;4.438;2022-09-16T17:10:20;12.70;99.90
59067;DHT22;44854;50.838;4.438;2022-09-16T17:12:47;12.60;99.90
59067;DHT22;44854;50.838;4.438;2022-09-16T17:15:13;12.50;99.90
59067;DHT22;44854;50.838;4.438;2022-09-16T17:17:38;12.70;99.90
59067;DHT22;44854;50.838;4.438;2022-09-16T17:20:05;12.80;99.90
59067;DHT22;44854;50.838;4.438;2022-09-16T17:22:31;12.80;99.90
59067;DHT22;44854;50.838;4.438;2022-09-16T17:24:56;12.80;99.90
59067;DHT22;44854;50.838;4.438;2022-09-16T17:27:22;12.90;99.90
59067;DHT22;44854;50.838;4.438;2022-09-16T17:29:51;12.70;99.90
59067;DHT22;44854;50.838;4.438;2022-09-16T17:32:16;12.60;99.90
59067;DHT22;44854;50.838;4.438;2022-09-16T17:34:42;12.50;99.90
59067;DHT22;44854;50.838;4.438;2022-09-16T17:37:07;12.50;99.90
59067;DHT22;44854;50.838;4.438;2022-09-16T17:39:33;12.50;99.90
59067;DHT22;44854;50.838;4.438;2022-09-16T17:41:59;12.70;99.90
59067;DHT22;44854;50.838;4.438;2022-09-16T17:44:24;12.80;99.90
59067;DHT22;44854;50.838;4.438;2022-09-16T17:46:51;12.70;99.90
59067;DHT22;44854;50.838;4.438;2022-09-16T17:49:17;12.70;99.90
59067;DHT22;44854;50.838;4.438;2022-09-16T17:51:44;12.80;99.90
59067;DHT22;44854;50.838;4.438;2022-09-16T17:54:10;12.80;99.90
59067;DHT22;44854;50.838;4.438;2022-09-16T17:56:36;12.80;99.90
59067;DHT22;44854;50.838;4.438;2022-09-16T17:59:01;12.90;99.90
59067;DHT22;44854;50.838;4.438;2022-09-16T18:01:27;13.00;99.90
59067;DHT22;44854;50.838;4.438;2022-09-16T18:03:55;13.10;99.90
59067;DHT22;44854;50.838;4.438;2022-09-16T18:06:39;13.10;99.90
59067;DHT22;44854;50.838;4.438;2022-09-16T18:09:05;13.10;99.90
59067;DHT22;44854;50.838;4.438;2022-09-16T18:11:35;12.90;99.90
59067;DHT22;44854;50.838;4.438;2022-09-16T18:14:01;12.90;99.90
59067;DHT22;44854;50.838;4.438;2022-09-16T18:16:27;12.90;99.90
59067;DHT22;44854;50.838;4.438;2022-09-16T18:18:54;12.80;99.90
59067;DHT22;44854;50.838;4.438;2022-09-16T18:21:20;12.80;99.90
59067;DHT22;44854;50.838;4.438;2022-09-16T18:23:51;12.80;99.90
59067;DHT22;44854;50.838;4.438;2022-09-16T18:26:16;12.80;99.90
59067;DHT22;44854;50.838;4.438;2022-09-16T18:28:43;12.90;99.90
59067;DHT22;44854;50.838;4.438;2022-09-16T18:31:10;12.60;99.90
59067;DHT22;44854;50.838;4.438;2022-09-16T18:33:36;12.50;99.90
59067;DHT22;44854;50.838;4.438;2022-09-16T18:36:03;12.60;99.90
59067;DHT22;44854;50.838;4.438;2022-09-16T18:38:29;12.70;99.90
59067;DHT22;44854;50.838;4.438;2022-09-16T18:41:08;12.80;99.90
59067;DHT22;44854;50.838;4.438;2022-09-16T18:43:35;12.80;99.90
59067;DHT22;44854;50.838;4.438;2022-09-16T18:46:11;12.80;99.90
59067;DHT22;44854;50.838;4.438;2022-09-16T18:48:37;12.80;99.90
59067;DHT22;44854;50.838;4.438;2022-09-16T18:51:03;12.90;99.90
59067;DHT22;44854;50.838;4.438;2022-09-16T18:53:29;12.90;99.90
59067;DHT22;44854;50.838;4.438;2022-09-16T18:55:55;13.00;99.90
59067;DHT22;44854;50.838;4.438;2022-09-16T18:58:21;13.00;99.90
59067;DHT22;44854;50.838;4.438;2022-09-16T19:00:46;13.00;99.90
59067;DHT22;44854;50.838;4.438;2022-09-16T19:03:16;12.80;99.90
59067;DHT22;44854;50.838;4.438;2022-09-16T19:05:42;12.90;99.90
59067;DHT22;44854;50.838;4.438;2022-09-16T19:08:07;12.90;99.90
59067;DHT22;44854;50.838;4.438;2022-09-16T19:10:33;12.90;99.90
59067;DHT22;44854;50.838;4.438;2022-09-16T19:12:59;12.90;99.90
59067;DHT22;44854;50.838;4.438;2022-09-16T19:15:26;12.90;99.90
59067;DHT22;44854;50.838;4.438;2022-09-16T19:17:51;12.90;99.90
59067;DHT22;44854;50.838;4.438;2022-09-16T19:20:17;12.80;99.90
59067;DHT22;44854;50.838;4.438;2022-09-16T19:22:43;12.90;99.90
59067;DHT22;44854;50.838;4.438;2022-09-16T19:25:08;12.80;99.90
59067;DHT22;44854;50.838;4.438;2022-09-16T19:27:34;12.90;99.90
59067;DHT22;44854;50.838;4.438;2022-09-16T19:30:01;12.90;99.90
59067;DHT22;44854;50.838;4.438;2022-09-16T19:32:29;12.80;99.90
59067;DHT22;44854;50.838;4.438;2022-09-16T19:34:54;12.80;99.90
59067;DHT22;44854;50.838;4.438;2022-09-16T19:37:20;12.80;99.90
59067;DHT22;44854;50.838;4.438;2022-09-16T19:39:46;12.80;99.90
59067;DHT22;44854;50.838;4.438;2022-09-16T19:42:11;12.80;99.90
59067;DHT22;44854;50.838;4.438;2022-09-16T19:44:37;12.70;99.90
59067;DHT22;44854;50.838;4.438;2022-09-16T19:47:02;12.70;99.90
59067;DHT22;44854;50.838;4.438;2022-09-16T19:49:28;12.60;99.90
59067;DHT22;44854;50.838;4.438;2022-09-16T19:51:53;12.50;99.90
59067;DHT22;44854;50.838;4.438;2022-09-16T19:54:19;12.40;99.90
59067;DHT22;44854;50.838;4.438;2022-09-16T19:56:45;12.40;99.90
59067;DHT22;44854;50.838;4.438;2022-09-16T19:59:10;12.50;99.90
59067;DHT22;44854;50.838;4.438;2022-09-16T20:01:36;12.50;99.90
59067;DHT22;44854;50.838;4.438;2022-09-16T20:04:03;12.30;99.90
59067;DHT22;44854;50.838;4.438;2022-09-16T20:06:31;12.30;99.90
59067;DHT22;44854;50.838;4.438;2022-09-16T20:08:58;12.30;99.90
59067;DHT22;44854;50.838;4.438;2022-09-16T20:11:24;12.30;99.90
59067;DHT22;44854;50.838;4.438;2022-09-16T20:13:51;12.20;99.90
59067;DHT22;44854;50.838;4.438;2022-09-16T20:16:17;12.20;99.90
59067;DHT22;44854;50.838;4.438;2022-09-16T20:18:43;12.20;99.90
59067;DHT22;44854;50.838;4.438;2022-09-16T20:21:10;12.30;99.90
59067;DHT22;44854;50.838;4.438;2022-09-16T20:23:36;12.20;99.90
59067;DHT22;44854;50.838;4.438;2022-09-16T20:26:03;12.10;99.90
59067;DHT22;44854;50.838;4.438;2022-09-16T20:28:30;12.10;99.90
59067;DHT22;44854;50.838;4.438;2022-09-16T20:30:56;12.00;99.90
59067;DHT22;44854;50.838;4.438;2022-09-16T20:33:22;12.00;99.90
59067;DHT22;44854;50.838;4.438;2022-09-16T20:35:48;12.00;99.90
59067;DHT22;44854;50.838;4.438;2022-09-16T20:38:13;12.00;99.90
59067;DHT22;44854;50.838;4.438;2022-09-16T20:40:39;12.00;99.90
59067;DHT22;44854;50.838;4.438;2022-09-16T20:43:12;12.10;99.90
59067;DHT22;44854;50.838;4.438;2022-09-16T20:45:38;11.90;99.90
59067;DHT22;44854;50.838;4.438;2022-09-16T20:48:04;12.00;99.90
59067;DHT22;44854;50.838;4.438;2022-09-16T20:50:29;12.00;99.90
59067;DHT22;44854;50.838;4.438;2022-09-16T20:52:55;12.10;99.90
59067;DHT22;44854;50.838;4.438;2022-09-16T20:55:20;11.90;99.90
59067;DHT22;44854;50.838;4.438;2022-09-16T20:57:49;11.80;99.90
59067;DHT22;44854;50.838;4.438;2022-09-16T21:00:15;11.80;99.90
59067;DHT22;44854;50.838;4.438;2022-09-16T21:02:43;11.80;99.90
59067;DHT22;44854;50.838;4.438;2022-09-16T21:05:09;11.80;99.90
59067;DHT22;44854;50.838;4.438;2022-09-16T21:07:35;11.80;99.90
59067;DHT22;44854;50.838;4.438;2022-09-16T21:10:00;11.70;99.90
59067;DHT22;44854;50.838;4.438;2022-09-16T21:12:28;11.70;99.90
59067;DHT22;44854;50.838;4.438;2022-09-16T21:14:54;11.60;99.90
59067;DHT22;44854;50.838;4.438;2022-09-16T21:17:19;11.80;99.90
59067;DHT22;44854;50.838;4.438;2022-09-16T21:19:47;11.90;99.90
59067;DHT22;44854;50.838;4.438;2022-09-16T21:22:12;11.80;99.90
59067;DHT22;44854;50.838;4.438;2022-09-16T21:24:38;11.80;99.90
59067;DHT22;44854;50.838;4.438;2022-09-16T21:27:04;11.80;99.90
59067;DHT22;44854;50.838;4.438;2022-09-16T21:29:29;11.80;99.90
59067;DHT22;44854;50.838;4.438;2022-09-16T21:31:55;11.90;99.90
59067;DHT22;44854;50.838;4.438;2022-09-16T21:34:21;12.00;99.90
59067;DHT22;44854;50.838;4.438;2022-09-16T21:36:47;12.20;99.90
59067;DHT22;44854;50.838;4.438;2022-09-16T21:39:13;12.20;99.90
59067;DHT22;44854;50.838;4.438;2022-09-16T21:41:39;12.20;99.90
59067;DHT22;44854;50.838;4.438;2022-09-16T21:44:04;12.30;99.90
59067;DHT22;44854;50.838;4.438;2022-09-16T21:46:31;12.30;99.90
59067;DHT22;44854;50.838;4.438;2022-09-16T21:48:58;12.30;99.90
59067;DHT22;44854;50.838;4.438;2022-09-16T21:51:24;12.20;99.90
59067;DHT22;44854;50.838;4.438;2022-09-16T21:53:50;12.20;99.90
59067;DHT22;44854;50.838;4.438;2022-09-16T21:56:19;12.00;99.90
59067;DHT22;44854;50.838;4.438;2022-09-16T21:58:45;12.20;99.90
